createdAt,value
2018-02-15T00:01:30.012Z,3.30
2018-02-15T00:03:56.186Z,3.40
2018-02-15T00:06:23.063Z,3.30
2018-02-15T00:08:49.195Z,3.10
2018-02-15T00:11:15.567Z,3.40
2018-02-15T00:13:41.743Z,3.60
2018-02-15T00:16:07.933Z,3.50
2018-02-15T00:18:34.053Z,3.30
2018-02-15T00:21:00.187Z,3.30
2018-02-15T00:23:26.317Z,3.40
2018-02-15T00:25:53.254Z,3.50
2018-02-15T00:28:19.449Z,3.40
2018-02-15T00:30:45.816Z,3.80
2018-02-15T00:33:11.977Z,3.40
2018-02-15T00:35:38.093Z,3.60
2018-02-15T00:38:04.242Z,3.60
2018-02-15T00:40:30.423Z,3.60
2018-02-15T00:42:56.678Z,3.40
2018-02-15T00:45:22.955Z,3.50
2018-02-15T00:47:50.446Z,3.50
2018-02-15T00:50:16.654Z,3.40
2018-02-15T00:52:42.806Z,3.50
2018-02-15T00:55:08.918Z,3.40
2018-02-15T00:57:36.100Z,3.60
2018-02-15T01:00:02.251Z,3.40
2018-02-15T01:02:28.447Z,3.50
2018-02-15T01:04:54.622Z,3.50
2018-02-15T01:07:20.882Z,3.60
2018-02-15T01:09:47.034Z,3.80
2018-02-15T01:12:13.139Z,3.50
2018-02-15T01:14:39.292Z,3.40
2018-02-15T01:17:05.668Z,3.40
2018-02-15T01:19:31.854Z,3.50
2018-02-15T01:21:58.072Z,3.50
2018-02-15T01:24:24.251Z,3.30
2018-02-15T01:26:50.427Z,3.40
2018-02-15T01:29:16.558Z,3.50
2018-02-15T01:31:42.690Z,3.50
2018-02-15T01:34:10.027Z,3.50
2018-02-15T01:36:36.215Z,3.40
2018-02-15T01:39:02.435Z,3.40
2018-02-15T01:41:28.559Z,3.00
2018-02-15T01:43:54.818Z,3.50
2018-02-15T01:46:21.717Z,3.50
2018-02-15T01:48:47.889Z,3.50
2018-02-15T01:51:14.802Z,3.70
2018-02-15T01:53:41.070Z,3.80
2018-02-15T01:56:07.250Z,3.50
2018-02-15T01:58:33.633Z,3.40
2018-02-15T02:00:59.812Z,3.30
2018-02-15T02:03:26.712Z,3.50
2018-02-15T02:05:52.856Z,3.50
2018-02-15T02:08:19.053Z,3.50
2018-02-15T02:10:45.289Z,3.60
2018-02-15T02:13:11.443Z,4.00
2018-02-15T02:15:37.635Z,3.60
2018-02-15T02:18:06.758Z,3.80
2018-02-15T02:20:32.924Z,3.60
2018-02-15T02:22:59.142Z,3.60
2018-02-15T02:25:25.442Z,3.60
2018-02-15T02:27:52.170Z,3.90
2018-02-15T02:30:18.516Z,3.90
2018-02-15T02:32:44.722Z,4.00
2018-02-15T02:35:10.869Z,4.00
2018-02-15T02:37:37.068Z,3.90
2018-02-15T02:40:03.223Z,4.10
2018-02-15T02:42:29.407Z,3.80
2018-02-15T02:44:56.333Z,4.00
2018-02-15T02:47:22.531Z,4.00
2018-02-15T02:49:48.816Z,3.90
2018-02-15T02:52:15.661Z,4.00
2018-02-15T02:54:41.773Z,3.80
2018-02-15T02:57:07.906Z,3.90
2018-02-15T02:59:34.152Z,4.00
2018-02-15T03:02:00.258Z,3.90
2018-02-15T03:04:26.612Z,3.80
2018-02-15T03:06:52.779Z,3.90
2018-02-15T03:09:19.002Z,3.90
2018-02-15T03:11:45.204Z,3.80
2018-02-15T03:14:11.426Z,3.90
2018-02-15T03:16:37.555Z,3.90
2018-02-15T03:19:03.761Z,3.80
2018-02-15T03:21:30.626Z,3.90
2018-02-15T03:23:56.746Z,3.40
2018-02-15T03:26:23.594Z,3.90
2018-02-15T03:28:49.717Z,3.80
2018-02-15T03:31:15.822Z,4.30
2018-02-15T03:33:41.977Z,3.90
2018-02-15T03:36:08.202Z,3.90
2018-02-15T03:38:34.379Z,3.70
2018-02-15T03:41:01.585Z,3.50
2018-02-15T03:43:27.831Z,3.80
2018-02-15T03:45:55.022Z,3.80
2018-02-15T03:48:21.208Z,4.10
2018-02-15T03:50:47.387Z,3.80
2018-02-15T03:53:14.264Z,3.70
2018-02-15T03:55:40.459Z,3.70
2018-02-15T03:58:07.547Z,3.80
2018-02-15T04:00:33.906Z,3.60
2018-02-15T04:03:00.274Z,3.80
2018-02-15T04:05:26.431Z,3.70
2018-02-15T04:07:52.901Z,3.80
2018-02-15T04:10:20.212Z,3.90
2018-02-15T04:12:46.415Z,3.90
2018-02-15T04:15:12.634Z,3.70
2018-02-15T04:17:43.104Z,3.90
2018-02-15T04:20:09.290Z,3.90
2018-02-15T04:22:35.420Z,3.90
2018-02-15T04:25:05.272Z,4.00
2018-02-15T04:27:31.415Z,3.80
2018-02-15T04:29:57.582Z,3.80
2018-02-15T04:32:23.733Z,3.80
2018-02-15T04:34:50.004Z,3.50
2018-02-15T04:37:16.145Z,3.40
2018-02-15T04:39:42.297Z,3.60
2018-02-15T04:42:08.514Z,4.00
2018-02-15T04:44:34.650Z,3.50
2018-02-15T04:47:00.997Z,3.50
2018-02-15T04:49:27.438Z,3.40
2018-02-15T04:51:53.757Z,3.40
2018-02-15T04:54:20.119Z,3.10
2018-02-15T04:56:46.434Z,3.30
2018-02-15T04:59:12.808Z,3.20
2018-02-15T05:01:39.120Z,3.20
2018-02-15T05:04:05.477Z,3.20
2018-02-15T05:06:31.774Z,3.00
2018-02-15T05:08:58.215Z,2.90
2018-02-15T05:11:24.747Z,2.80
2018-02-15T05:13:51.104Z,2.50
2018-02-15T05:16:18.258Z,2.40
2018-02-15T05:18:44.634Z,2.30
2018-02-15T05:21:11.744Z,2.30
2018-02-15T05:23:38.094Z,2.30
2018-02-15T05:26:05.770Z,2.30
2018-02-15T05:28:32.202Z,2.30
2018-02-15T05:30:58.569Z,2.30
2018-02-15T05:33:25.025Z,2.30
2018-02-15T05:35:52.010Z,2.30
2018-02-15T05:38:18.247Z,2.20
2018-02-15T05:40:44.765Z,2.20
2018-02-15T05:43:11.856Z,2.10
2018-02-15T05:45:38.297Z,1.90
2018-02-15T05:48:04.748Z,2.20
2018-02-15T05:50:32.337Z,2.20
2018-02-15T05:52:58.647Z,2.30
2018-02-15T05:55:25.924Z,1.90
2018-02-15T05:57:52.222Z,2.10
2018-02-15T06:00:18.531Z,2.10
2018-02-15T06:02:44.908Z,2.20
2018-02-15T06:05:14.780Z,2.20
2018-02-15T06:07:41.133Z,2.50
2018-02-15T06:10:08.055Z,2.20
2018-02-15T06:12:38.393Z,2.10
2018-02-15T06:15:06.044Z,2.20
2018-02-15T06:17:32.358Z,1.90
2018-02-15T06:19:58.522Z,2.20
2018-02-15T06:22:24.683Z,1.90
2018-02-15T06:28:00.480Z,1.90
2018-02-15T06:30:30.628Z,1.70
2018-02-15T06:32:56.968Z,1.80
2018-02-15T06:35:23.204Z,1.80
2018-02-15T06:37:53.331Z,1.70
2018-02-15T06:40:22.320Z,2.00
2018-02-15T06:42:48.632Z,2.00
2018-02-15T06:47:59.586Z,2.10
2018-02-15T06:50:30.478Z,1.80
2018-02-15T06:52:57.094Z,1.80
2018-02-15T06:55:29.427Z,2.00
2018-02-15T06:57:56.516Z,1.90
2018-02-15T07:00:23.688Z,2.00
2018-02-15T07:03:18.167Z,1.90
2018-02-15T07:08:25.726Z,2.00
2018-02-15T07:10:52.416Z,2.10
2018-02-15T07:13:18.818Z,2.00
2018-02-15T07:15:45.870Z,2.10
2018-02-15T07:18:12.311Z,2.00
2018-02-15T07:20:39.314Z,2.20
2018-02-15T07:23:05.672Z,2.10
2018-02-15T07:25:35.982Z,2.20
2018-02-15T07:28:02.255Z,2.40
2018-02-15T07:30:28.594Z,2.40
2018-02-15T07:32:54.902Z,2.40
2018-02-15T07:35:21.975Z,2.50
2018-02-15T07:40:46.422Z,2.50
2018-02-15T07:43:12.602Z,2.50
2018-02-15T07:45:38.862Z,2.80
2018-02-15T07:48:05.023Z,2.80
2018-02-15T07:59:26.543Z,2.90
2018-02-15T08:08:04.531Z,3.20
2018-02-15T08:10:40.440Z,3.20
2018-02-15T08:13:06.573Z,3.60
2018-02-15T08:15:34.133Z,3.30
2018-02-15T08:18:00.837Z,3.70
2018-02-15T08:20:27.697Z,3.70
2018-02-15T08:25:43.268Z,3.60
2018-02-15T08:28:09.577Z,3.60
2018-02-15T08:30:35.914Z,3.40
2018-02-15T08:33:02.992Z,3.50
2018-02-15T08:35:31.453Z,3.50
2018-02-15T08:37:58.995Z,3.70
2018-02-15T08:40:27.245Z,3.60
2018-02-15T08:42:54.527Z,4.00
2018-02-15T08:45:20.976Z,3.70
2018-02-15T08:47:47.370Z,3.70
2018-02-15T08:50:14.585Z,3.90
2018-02-15T08:52:42.485Z,3.70
2018-02-15T08:55:08.979Z,3.80
2018-02-15T09:00:28.578Z,3.80
2018-02-15T09:02:56.041Z,3.90
2018-02-15T09:05:22.391Z,3.80
2018-02-15T09:07:49.402Z,3.80
2018-02-15T09:10:22.355Z,3.90
2018-02-15T09:13:04.328Z,4.00
2018-02-15T09:18:17.590Z,4.20
2018-02-15T09:20:43.691Z,3.50
2018-02-15T09:23:09.930Z,3.70
2018-02-15T09:25:50.890Z,4.10
2018-02-15T09:28:17.775Z,3.80
2018-02-15T09:30:43.923Z,3.80
2018-02-15T09:35:52.163Z,4.00
2018-02-15T09:38:19.497Z,4.00
2018-02-15T09:40:45.884Z,4.10
2018-02-15T09:43:12.014Z,4.00
2018-02-15T09:45:38.189Z,4.00
2018-02-15T09:48:04.287Z,4.10
2018-02-15T09:50:51.215Z,3.90
2018-02-15T09:56:29.751Z,4.00
2018-02-15T09:58:56.151Z,3.90
2018-02-15T10:01:22.553Z,3.90
2018-02-15T10:03:51.082Z,3.90
2018-02-15T10:06:22.899Z,3.90
2018-02-15T10:08:50.946Z,3.90
2018-02-15T10:11:17.314Z,3.90
2018-02-15T10:13:44.246Z,4.00
2018-02-15T10:16:25.166Z,3.60
2018-02-15T10:18:51.499Z,4.10
2018-02-15T10:21:21.171Z,3.90
2018-02-15T10:23:47.512Z,3.90
2018-02-15T10:26:13.865Z,3.90
2018-02-15T10:28:50.872Z,4.10
2018-02-15T10:31:20.874Z,4.20
2018-02-15T10:33:47.225Z,4.20
2018-02-15T10:36:21.568Z,4.10
2018-02-15T10:38:51.282Z,4.20
2018-02-15T10:41:17.638Z,4.10
2018-02-15T10:43:43.985Z,4.30
2018-02-15T10:46:11.940Z,4.20
2018-02-15T10:48:38.420Z,4.10
2018-02-15T10:51:05.524Z,4.20
2018-02-15T10:53:32.288Z,4.10
2018-02-15T10:56:20.939Z,4.30
2018-02-15T10:58:47.511Z,4.20
2018-02-15T11:01:19.781Z,4.20
2018-02-15T11:03:46.616Z,4.30
2018-02-15T11:06:12.818Z,4.20
2018-02-15T11:08:38.938Z,4.30
2018-02-15T11:11:05.097Z,4.30
2018-02-15T11:13:31.252Z,4.30
2018-02-15T11:15:58.753Z,4.30
2018-02-15T11:18:31.287Z,4.30
2018-02-15T11:23:58.211Z,4.30
2018-02-15T11:26:33.107Z,4.30
2018-02-15T11:28:59.378Z,4.30
2018-02-15T11:31:26.279Z,4.20
2018-02-15T11:33:52.405Z,4.10
2018-02-15T11:36:22.321Z,4.20
2018-02-15T11:38:55.552Z,4.30
2018-02-15T11:41:40.288Z,4.20
2018-02-15T11:44:06.668Z,4.30
2018-02-15T11:46:33.264Z,4.20
2018-02-15T11:48:59.677Z,4.40
2018-02-15T11:54:12.582Z,4.40
2018-02-15T11:56:51.673Z,4.60
2018-02-15T11:59:18.175Z,4.70
2018-02-15T12:01:50.874Z,4.60
2018-02-15T12:04:17.202Z,4.70
2018-02-15T12:06:43.686Z,4.60
2018-02-15T12:09:16.548Z,4.70
2018-02-15T12:11:43.028Z,4.80
2018-02-15T12:14:09.376Z,4.90
2018-02-15T12:16:39.581Z,4.70
2018-02-15T12:19:06.200Z,4.80
2018-02-15T12:21:32.570Z,4.70
2018-02-15T12:23:58.909Z,4.80
2018-02-15T12:26:25.225Z,4.90
2018-02-15T12:29:15.912Z,4.90
2018-02-15T12:31:42.620Z,4.90
2018-02-15T12:34:09.242Z,5.00
2018-02-15T12:39:08.778Z,4.90
2018-02-15T12:41:36.125Z,4.70
2018-02-15T12:44:02.597Z,4.90
2018-02-15T12:46:29.778Z,5.00
2018-02-15T12:48:56.188Z,5.10
2018-02-15T12:51:22.767Z,5.00
2018-02-15T12:53:49.200Z,4.70
2018-02-15T12:56:19.639Z,5.00
2018-02-15T12:58:46.145Z,5.00
2018-02-15T13:01:12.651Z,5.00
2018-02-15T13:03:39.083Z,5.10
2018-02-15T13:06:06.040Z,5.00
2018-02-15T13:08:32.594Z,5.00
2018-02-15T13:11:07.974Z,5.00
2018-02-15T13:13:35.221Z,5.10
2018-02-15T13:16:13.874Z,5.00
2018-02-15T13:21:11.857Z,5.00
2018-02-15T13:23:38.376Z,5.30
2018-02-15T13:26:04.810Z,5.10
2018-02-15T13:28:40.349Z,5.40
2018-02-15T13:31:13.199Z,4.90
2018-02-15T13:33:39.751Z,5.30
2018-02-15T13:36:06.190Z,5.10
2018-02-15T13:38:32.549Z,5.30
2018-02-15T13:40:59.061Z,5.10
2018-02-15T13:43:26.552Z,5.40
2018-02-15T13:45:57.354Z,5.10
2018-02-15T13:48:23.689Z,5.30
2018-02-15T13:50:50.132Z,5.60
2018-02-15T13:53:16.705Z,5.30
2018-02-15T13:56:00.224Z,5.20
2018-02-15T13:58:28.234Z,5.40
2018-02-15T14:00:54.637Z,5.40
2018-02-15T14:03:21.022Z,5.40
2018-02-15T14:05:47.407Z,5.30
2018-02-15T14:08:13.897Z,5.40
2018-02-15T14:10:40.308Z,5.60
2018-02-15T14:13:08.718Z,5.60
2018-02-15T14:15:35.073Z,5.50
2018-02-15T14:18:01.790Z,5.50
2018-02-15T14:20:28.242Z,5.10
2018-02-15T14:22:54.651Z,5.50
2018-02-15T14:25:20.982Z,5.50
2018-02-15T14:27:47.323Z,5.00
2018-02-15T14:30:16.714Z,5.40
2018-02-15T14:32:44.751Z,5.60
2018-02-15T14:35:11.165Z,5.70
2018-02-15T14:37:37.574Z,5.60
2018-02-15T14:40:04.265Z,5.60
2018-02-15T14:42:31.328Z,5.80
2018-02-15T14:44:58.057Z,5.70
2018-02-15T14:47:24.627Z,5.60
2018-02-15T14:49:53.894Z,5.60
2018-02-15T14:52:53.110Z,5.60
2018-02-15T14:55:19.690Z,5.60
2018-02-15T14:57:46.178Z,5.60
2018-02-15T15:00:12.776Z,5.70
2018-02-15T15:02:39.562Z,5.40
2018-02-15T15:05:09.493Z,5.90
2018-02-15T15:07:40.122Z,5.80
2018-02-15T15:10:06.676Z,5.60
2018-02-15T15:12:34.055Z,5.70
2018-02-15T15:15:00.696Z,5.60
2018-02-15T15:17:27.387Z,5.70
2018-02-15T15:19:54.715Z,5.40
2018-02-15T15:22:21.374Z,5.70
2018-02-15T15:24:52.884Z,5.60
2018-02-15T15:27:20.458Z,5.70
2018-02-15T15:29:47.252Z,5.70
2018-02-15T15:32:14.539Z,5.70
2018-02-15T15:34:41.208Z,5.80
2018-02-15T15:37:08.661Z,5.60
2018-02-15T15:39:41.542Z,6.10
2018-02-15T15:42:08.261Z,5.50
2018-02-15T15:44:35.500Z,5.70
2018-02-15T15:47:01.921Z,5.70
2018-02-15T15:49:28.305Z,5.90
2018-02-15T15:51:54.758Z,5.70
2018-02-15T15:54:21.817Z,5.70
2018-02-15T15:56:48.383Z,5.70
2018-02-15T15:59:14.750Z,6.10
2018-02-15T16:01:48.466Z,5.90
2018-02-15T16:04:14.847Z,6.30
2018-02-15T16:06:41.398Z,5.70
2018-02-15T16:09:09.683Z,6.10
2018-02-15T16:11:36.090Z,5.90
2018-02-15T16:14:02.420Z,5.90
2018-02-15T16:16:28.857Z,5.80
2018-02-15T16:18:55.198Z,5.80
2018-02-15T16:21:21.573Z,5.80
2018-02-15T16:23:47.965Z,5.80
2018-02-15T16:26:15.102Z,5.90
2018-02-15T16:28:42.098Z,5.90
2018-02-15T16:31:10.552Z,5.90
2018-02-15T16:33:37.486Z,6.00
2018-02-15T16:36:03.851Z,6.00
2018-02-15T16:38:30.962Z,6.00
2018-02-15T16:40:57.432Z,6.10
2018-02-15T16:46:12.857Z,5.90
2018-02-15T16:48:49.600Z,6.40
2018-02-15T16:51:16.035Z,6.20
2018-02-15T16:53:43.851Z,6.10
2018-02-15T16:56:10.449Z,6.30
2018-02-15T16:58:38.929Z,6.40
2018-02-15T17:01:05.511Z,6.10
2018-02-15T17:03:49.662Z,6.70
2018-02-15T17:06:16.144Z,6.40
2018-02-15T17:08:42.443Z,6.70
2018-02-15T17:11:10.654Z,6.70
2018-02-15T17:13:37.999Z,6.60
2018-02-15T17:16:06.467Z,6.50
2018-02-15T17:18:33.165Z,6.60
2018-02-15T17:21:12.355Z,6.50
2018-02-15T17:23:38.617Z,6.50
2018-02-15T17:26:04.916Z,6.60
2018-02-15T17:28:31.178Z,6.70
2018-02-15T17:31:01.143Z,6.60
2018-02-15T17:33:27.344Z,6.60
2018-02-15T17:35:53.547Z,6.50
2018-02-15T17:38:19.978Z,6.80
2018-02-15T17:40:46.286Z,6.60
2018-02-15T17:43:12.447Z,6.60
2018-02-15T17:45:45.021Z,6.50
2018-02-15T17:48:11.322Z,6.50
2018-02-15T17:50:37.524Z,6.50
2018-02-15T17:53:03.759Z,6.60
2018-02-15T17:55:30.295Z,6.60
2018-02-15T17:57:59.244Z,6.90
2018-02-15T18:00:25.648Z,6.50
2018-02-15T18:02:51.867Z,6.50
2018-02-15T18:05:18.065Z,6.80
2018-02-15T18:07:44.278Z,6.70
2018-02-15T18:10:11.187Z,6.70
2018-02-15T18:12:37.370Z,6.70
2018-02-15T18:15:04.091Z,6.80
2018-02-15T18:17:30.266Z,7.00
2018-02-15T18:19:56.546Z,6.70
2018-02-15T18:22:22.842Z,6.50
2018-02-15T18:24:49.021Z,6.90
2018-02-15T18:27:15.233Z,6.80
2018-02-15T18:29:41.423Z,6.80
2018-02-15T18:32:21.628Z,6.80
2018-02-15T18:34:48.602Z,6.70
2018-02-15T18:37:14.998Z,6.70
2018-02-15T18:39:48.188Z,6.70
2018-02-15T18:42:14.526Z,6.80
2018-02-15T18:44:41.767Z,6.70
2018-02-15T18:47:08.229Z,6.70
2018-02-15T18:49:34.795Z,6.50
2018-02-15T18:52:01.231Z,6.60
2018-02-15T18:54:27.682Z,6.50
2018-02-15T18:56:54.027Z,6.50
2018-02-15T18:59:20.261Z,6.70
2018-02-15T19:01:47.378Z,6.60
2018-02-15T19:04:13.630Z,6.70
2018-02-15T19:06:40.053Z,6.70
2018-02-15T19:09:06.722Z,6.80
2018-02-15T19:11:36.601Z,6.70
2018-02-15T19:14:02.954Z,6.70
2018-02-15T19:16:29.196Z,6.80
2018-02-15T19:18:56.287Z,6.70
2018-02-15T19:21:22.558Z,6.80
2018-02-15T19:23:48.834Z,6.70
2018-02-15T19:26:15.342Z,6.90
2018-02-15T19:28:44.652Z,7.10
2018-02-15T19:31:11.371Z,7.00
2018-02-15T19:33:40.848Z,7.00
2018-02-15T19:36:08.292Z,7.00
2018-02-15T19:38:34.904Z,7.20
2018-02-15T19:41:01.613Z,7.10
2018-02-15T19:43:28.626Z,7.20
2018-02-15T19:45:56.605Z,7.30
2018-02-15T19:48:26.014Z,7.10
2018-02-15T19:50:54.180Z,7.00
2018-02-15T19:53:21.869Z,7.00
2018-02-15T19:55:48.264Z,7.30
2018-02-15T19:58:15.070Z,7.10
2018-02-15T20:00:42.324Z,7.00
2018-02-15T20:03:10.180Z,7.20
2018-02-15T20:05:37.038Z,7.10
2018-02-15T20:08:04.838Z,7.00
2018-02-15T20:10:32.952Z,6.80
2018-02-15T20:13:00.301Z,6.90
2018-02-15T20:15:33.061Z,6.90
2018-02-15T20:17:59.747Z,6.90
2018-02-15T20:20:27.374Z,7.00
2018-02-15T20:22:54.733Z,6.80
2018-02-15T20:25:21.239Z,6.70
2018-02-15T20:27:53.864Z,6.90
2018-02-15T20:30:20.554Z,6.60
2018-02-15T20:32:46.985Z,6.60
2018-02-15T20:35:13.749Z,6.70
2018-02-15T20:37:46.366Z,6.80
2018-02-15T20:40:23.309Z,6.60
2018-02-15T20:42:49.829Z,6.60
2018-02-15T20:45:16.366Z,6.60
2018-02-15T20:47:47.722Z,6.60
2018-02-15T20:50:21.673Z,6.40
2018-02-15T20:52:54.947Z,6.60
2018-02-15T20:55:28.919Z,6.60
2018-02-15T20:57:57.321Z,6.60
2018-02-15T21:00:24.151Z,6.40
2018-02-15T21:02:50.622Z,6.50
2018-02-15T21:05:17.833Z,6.50
2018-02-15T21:07:44.513Z,6.40
2018-02-15T21:12:45.315Z,6.60
2018-02-15T21:15:13.037Z,6.50
2018-02-15T21:17:46.927Z,6.40
2018-02-15T21:20:15.131Z,6.30
2018-02-15T21:22:42.648Z,6.20
2018-02-15T21:25:09.450Z,6.10
2018-02-15T21:27:37.590Z,6.00
2018-02-15T21:30:04.440Z,6.10
2018-02-15T21:32:31.133Z,6.10
2018-02-15T21:34:57.715Z,6.20
2018-02-15T21:37:24.276Z,6.10
2018-02-15T21:39:50.826Z,5.70
2018-02-15T21:42:17.426Z,6.10
2018-02-15T21:44:44.155Z,5.90
2018-02-15T21:47:11.574Z,6.20
2018-02-15T21:49:39.078Z,5.90
2018-02-15T21:52:05.678Z,6.00
2018-02-15T21:54:32.897Z,6.00
2018-02-15T21:57:00.048Z,5.80
2018-02-15T21:59:27.199Z,5.90
2018-02-15T22:01:56.962Z,5.60
2018-02-15T22:04:26.930Z,5.60
2018-02-15T22:06:56.569Z,5.50
2018-02-15T22:09:23.359Z,5.80
2018-02-15T22:11:51.853Z,5.80
2018-02-15T22:14:18.341Z,5.70
2018-02-15T22:16:45.074Z,5.70
2018-02-15T22:19:11.674Z,5.70
2018-02-15T22:21:38.363Z,6.00
2018-02-15T22:24:04.894Z,5.60
2018-02-15T22:26:31.856Z,5.40
2018-02-15T22:28:58.878Z,5.40
2018-02-15T22:31:27.508Z,5.40
2018-02-15T22:33:54.079Z,5.40
2018-02-15T22:36:21.147Z,5.40
2018-02-15T22:38:47.470Z,5.40
2018-02-15T22:41:15.551Z,5.20
2018-02-15T22:43:42.611Z,5.20
2018-02-15T22:46:09.041Z,5.20
2018-02-15T22:48:36.133Z,5.40
2018-02-15T22:51:02.664Z,5.50
2018-02-15T22:53:29.674Z,5.30
2018-02-15T22:55:57.247Z,5.10
2018-02-15T22:58:23.755Z,5.10
2018-02-15T23:00:53.523Z,4.90
2018-02-15T23:03:19.729Z,5.00
2018-02-15T23:05:46.019Z,4.90
2018-02-15T23:08:12.264Z,4.90
2018-02-15T23:10:38.598Z,4.90
2018-02-15T23:13:05.771Z,5.20
2018-02-15T23:15:32.180Z,4.90
2018-02-15T23:17:58.622Z,5.00
2018-02-15T23:20:25.821Z,4.70
2018-02-15T23:22:52.611Z,4.50
2018-02-15T23:25:18.863Z,4.60
2018-02-15T23:27:45.942Z,4.70
2018-02-15T23:30:15.962Z,4.90
2018-02-15T23:32:42.417Z,4.50
2018-02-15T23:35:09.064Z,4.50
2018-02-15T23:37:36.238Z,4.50
2018-02-15T23:40:03.609Z,4.10
2018-02-15T23:42:30.419Z,4.50
2018-02-15T23:44:56.948Z,4.50
2018-02-15T23:47:23.649Z,4.70
2018-02-15T23:49:49.919Z,4.30
2018-02-15T23:52:16.122Z,4.70
2018-02-15T23:54:42.463Z,4.50
2018-02-15T23:57:09.946Z,4.40
2018-02-15T23:59:36.850Z,4.50
